• Join FlightAware (Why Join?)
  • Login
  • US Flag 
03:52PM EDT


 

Airport Tracker/Info


-or-


 

Live Flight TrackerFlight Track Log ✈ WEW1540 ✈ 02-May-2013 ✈ CYYN - CYKY

Flight Track Log - Related Links

Times and Time Zones

All times are in EDT time to prevent confusion due to time zone crossing. See the WEW1540 flight status page for this flight to view local times or setup timezone preferences in your user account.

Time Position Orientation Groundspeed Altitude Reporting Facility
EDT Latitude Longitude Course Direction KTS MPH feet Rate Location/Type
09:07AM 50.5592 -108.0070 323° Northwest  Level Estimated
09:08AM 50.5888 -108.0424 323° Northwest  Level Estimated
09:09AM 50.6185 -108.0778 323° Northwest  Level Estimated
09:10AM 50.6481 -108.1133 323° Northwest  Level Estimated
09:11AM 50.6777 -108.1488 323° Northwest  Level Estimated
09:12AM 50.7073 -108.1844 323° Northwest  Level Estimated
09:12AM 50.8333 -108.4000 323° Northwest 160 184 5,900  Level Winnipeg Center
09:13AM 50.7369 -108.2200 323° Northwest  Level Estimated
09:14AM 50.7665 -108.2556 323° Northwest  Level Estimated
09:14AM 50.8818 -108.4512 326° Northwest  Level FlightAware Approximate
09:14AM 50.9333 -108.5000 326° Northwest 180 207 5,900  Level Winnipeg Center
09:15AM 50.7961 -108.2913 323° Northwest  Level Estimated
09:15AM 50.9667 -108.5667 308° West 180 207 5,900  Level Winnipeg Center
09:16AM 50.8256 -108.3271 323° Northwest  Level Estimated
09:16AM 51.0000 -108.6000 328° Northwest 180 207 5,900  Level Winnipeg Center
09:17AM 50.8552 -108.3628 323° Northwest  Level Estimated
09:17AM 51.0500 -108.6667 320° Northwest 180 207 5,900  Level Winnipeg Center
09:18AM 50.8847 -108.3987 323° Northwest  Level Estimated
09:18AM 51.0833 -108.7000 328° Northwest 180 207 5,900  Level Winnipeg Center
09:19AM 51.1167 -108.7667 309° West 180 207 5,900 -120 Level Winnipeg Center
09:21AM 51.1582 -108.7977 335° Northwest  Level FlightAware Approximate
09:22AM 51.2333 -108.8667 335° Northwest 190 219 5,600  Level Winnipeg Center
09:23AM 51.2500 -108.9000 309° West 190 219 5,400 -300 Descending Winnipeg Center
09:24AM 51.3000 -108.9500 328° Northwest 180 207 5,000 -360 Descending Winnipeg Center
09:25AM 51.3500 -108.9833 337° Northwest 180 207 4,700 -360 Descending Winnipeg Center
09:27AM 51.4500 -109.0833 328° Northwest 150 173 3,900 -360 Descending Winnipeg Center
09:29AM 51.4870 -109.1450 314° West  Level FlightAware Approximate
09:36AM 51.5000 -109.1667 323° Northwest  Level FlightAware Approximate
09:37AM 51.5175 -109.1808 323° Northwest  Level Estimated
09:38AM 51.5175 -109.1808 323° Northwest  Level Estimated
09:39AM 51.5175 -109.1808 323° Northwest  Level Estimated
09:40AM 51.5175 -109.1808 323° Northwest  Level Estimated
09:41AM 51.5175 -109.1808 323° Northwest  Level Estimated
09:42AM 51.5175 -109.1808 323° Northwest  Level Estimated
09:43AM 51.5175 -109.1808 323° Northwest  Level Estimated
09:44AM 51.5175 -109.1808 323° Northwest  Level Estimated
09:45AM 51.5175 -109.1808 323° Northwest  Level Estimated
09:46AM 51.5175 -109.1808 323° Northwest  Level Estimated
09:47AM 51.5175 -109.1808 323° Northwest  Level Estimated
09:48AM 51.5175 -109.1808 323° Northwest  Level Estimated
09:49AM 51.5175 -109.1808 323° Northwest  Level Estimated
09:50AM 51.5175 -109.1808 323° Northwest  Level Estimated
09:51AM 51.5175 -109.1808 323° Northwest  Level Estimated
09:52AM 51.5175 -109.1808 323° Northwest  Level Estimated
09:53AM 51.5175 -109.1808 323° Northwest  Level Estimated
09:54AM 51.5175 -109.1808 323° Northwest  Level Estimated
09:55AM 51.5175 -109.1808 323° Northwest  Level Estimated